createdAt,value
2023-02-22T00:06:32.040Z,-1.04
2023-02-22T00:16:32.107Z,-1.05
2023-02-22T00:26:32.038Z,-1.3
2023-02-22T00:36:32.115Z,-1.55
2023-02-22T00:46:32.058Z,-1.51
2023-02-22T00:56:32.035Z,-1.6
2023-02-22T01:06:32.111Z,-1.55
2023-02-22T01:16:32.123Z,-1.61
2023-02-22T01:26:32.077Z,-1.72
2023-02-22T01:36:32.101Z,-1.65
2023-02-22T01:46:32.097Z,-1.76
2023-02-22T01:56:32.082Z,-1.83
2023-02-22T02:06:32.125Z,-1.8
2023-02-22T02:16:32.112Z,-1.9
2023-02-22T02:26:32.164Z,-2.1
2023-02-22T02:36:32.125Z,-2.09
2023-02-22T02:46:32.234Z,-2.12
2023-02-22T02:56:32.104Z,-2.22
2023-02-22T03:06:32.147Z,-2.23
2023-02-22T03:16:32.211Z,-2.24
2023-02-22T03:26:32.160Z,-2.53
2023-02-22T03:36:32.204Z,-2.31
2023-02-22T03:46:32.228Z,-2.39
2023-02-22T03:56:34.242Z,-2.38
2023-02-22T04:06:32.230Z,-2.4
2023-02-22T04:16:32.217Z,-2.38
2023-02-22T04:26:32.265Z,-2.58
2023-02-22T04:36:32.236Z,-2.62
2023-02-22T04:46:32.252Z,-2.58
2023-02-22T04:56:32.224Z,-2.78
2023-02-22T05:06:32.324Z,-2.71
2023-02-22T05:16:32.257Z,-2.99
2023-02-22T05:26:32.273Z,-2.72
2023-02-22T05:36:32.386Z,-2.79
2023-02-22T05:46:32.502Z,-2.76
2023-02-22T05:56:32.333Z,-2.56
2023-02-22T06:06:32.321Z,-2.51
2023-02-22T06:16:32.397Z,-2.53
2023-02-22T06:26:32.341Z,-2.54
2023-02-22T06:36:32.393Z,-2.24
2023-02-22T06:46:32.315Z,-1.94
2023-02-22T06:56:32.322Z,-1.43
2023-02-22T07:06:32.481Z,-0.63
2023-02-22T07:16:32.399Z,0.19
2023-02-22T07:26:32.424Z,0.9
2023-02-22T07:36:32.396Z,1.43
2023-02-22T07:46:32.362Z,1.88
2023-02-22T07:56:32.354Z,2.07
2023-02-22T08:06:32.469Z,2.82
2023-02-22T08:16:32.404Z,3.92
2023-02-22T08:26:32.404Z,4.67
2023-02-22T08:36:32.425Z,5.1
2023-02-22T08:46:32.378Z,5.98
2023-02-22T08:56:32.385Z,5.99
2023-02-22T09:06:32.417Z,6.08
2023-02-22T09:16:32.434Z,6.8
2023-02-22T09:26:32.416Z,7.07
2023-02-22T09:36:32.317Z,8.52
2023-02-22T09:46:32.351Z,8.46
2023-02-22T09:56:32.330Z,8.94
2023-02-22T10:06:32.487Z,9.97
2023-02-22T10:16:32.338Z,10.72
2023-02-22T10:26:32.349Z,11.24
2023-02-22T10:36:32.329Z,11.89
2023-02-22T10:46:32.347Z,11.78
2023-02-22T10:56:32.310Z,12.56
2023-02-22T11:06:32.378Z,13.12
2023-02-22T11:16:32.368Z,13.02
2023-02-22T11:26:32.371Z,12.85
2023-02-22T11:36:32.280Z,13.2
2023-02-22T11:46:32.427Z,13.2
2023-02-22T11:56:37.934Z,12.21
2023-02-22T12:06:32.395Z,11.75
2023-02-22T12:16:32.246Z,11.63
2023-02-22T12:26:32.347Z,11.8
2023-02-22T12:36:32.259Z,11.93
2023-02-22T12:46:32.374Z,11.86
2023-02-22T12:56:32.305Z,11.96
2023-02-22T13:06:32.342Z,12.05
2023-02-22T13:16:32.205Z,12.08
2023-02-22T13:26:32.274Z,12.21
2023-02-22T13:36:32.202Z,12.28
2023-02-22T13:46:32.310Z,12.33
2023-02-22T13:56:32.184Z,12.3
2023-02-22T14:06:32.225Z,12.35
2023-02-22T14:16:32.265Z,12.56
2023-02-22T14:26:32.220Z,12.57
2023-02-22T14:36:32.168Z,12.57
2023-02-22T14:46:32.269Z,12.4
2023-02-22T14:56:32.157Z,12.34
2023-02-22T15:06:32.352Z,12.26
2023-02-22T15:16:32.224Z,12.09
2023-02-22T15:26:32.244Z,11.98
2023-02-22T15:36:32.158Z,11.64
2023-02-22T15:46:32.206Z,11.12
2023-02-22T15:56:32.155Z,10.54
2023-02-22T16:06:32.184Z,9.95
2023-02-22T16:16:32.175Z,9.21
2023-02-22T16:26:32.160Z,8.32
2023-02-22T16:36:32.180Z,7.43
2023-02-22T16:46:32.255Z,6.83
2023-02-22T16:56:32.174Z,6.14
2023-02-22T17:06:32.154Z,5.67
2023-02-22T17:16:32.148Z,5.32
2023-02-22T17:26:32.171Z,4.97
2023-02-22T17:36:32.141Z,4.46
2023-02-22T17:46:32.172Z,4.1
2023-02-22T17:56:32.131Z,3.99
2023-02-22T18:06:32.158Z,3.7
2023-02-22T18:16:32.187Z,3.39
2023-02-22T18:26:32.222Z,3.28
2023-02-22T18:36:32.187Z,3.1
2023-02-22T18:46:32.222Z,2.9
2023-02-22T18:56:32.163Z,2.74
2023-02-22T19:06:32.181Z,2.56
2023-02-22T19:16:32.207Z,2.66
2023-02-22T19:26:32.189Z,2.46
2023-02-22T19:36:32.151Z,2.26
2023-02-22T19:46:32.201Z,2
2023-02-22T19:56:32.189Z,2
2023-02-22T20:06:32.183Z,1.96
2023-02-22T20:16:32.197Z,1.81
2023-02-22T20:26:32.253Z,1.61
2023-02-22T20:36:32.201Z,1.54
2023-02-22T20:46:32.263Z,1.34
2023-02-22T20:56:32.205Z,1.18
2023-02-22T21:06:32.199Z,0.91
2023-02-22T21:16:32.276Z,0.87
2023-02-22T21:26:32.344Z,0.68
2023-02-22T21:36:32.209Z,0.35
2023-02-22T21:46:32.265Z,0.3
2023-02-22T21:56:32.288Z,0.33
2023-02-22T22:06:32.349Z,0.38
2023-02-22T22:16:32.230Z,0.21
2023-02-22T22:26:32.240Z,0.14
2023-02-22T22:36:32.247Z,0.06
2023-02-22T22:46:32.284Z,-0.14
2023-02-22T22:56:32.276Z,-0.23
2023-02-22T23:06:32.279Z,-0.44
2023-02-22T23:16:32.235Z,-0.49
2023-02-22T23:26:32.282Z,-0.52
2023-02-22T23:36:32.248Z,-0.73
2023-02-22T23:46:32.348Z,-0.81
2023-02-22T23:56:32.278Z,-0.83
